createdAt,value
2018-05-25T00:00:37.157Z,79.96
2018-05-25T00:03:05.762Z,80.27
2018-05-25T00:05:33.525Z,80.53
2018-05-25T00:08:07.041Z,80.56
2018-05-25T00:10:37.366Z,80.58
2018-05-25T00:13:04.955Z,80.94
2018-05-25T00:15:32.607Z,81.51
2018-05-25T00:18:01.132Z,81.93
2018-05-25T00:20:29.673Z,82.42
2018-05-25T00:22:57.341Z,82.86
2018-05-25T00:25:25.132Z,83.13
2018-05-25T00:27:52.704Z,83.41
2018-05-25T00:30:20.296Z,83.83
2018-05-25T00:32:48.162Z,84.22
2018-05-25T00:35:15.769Z,84.46
2018-05-25T00:37:43.560Z,84.63
2018-05-25T00:40:11.111Z,85.30
2018-05-25T00:42:39.628Z,85.50
2018-05-25T00:45:08.063Z,85.68
2018-05-25T00:47:36.020Z,85.79
2018-05-25T00:50:03.690Z,85.73
2018-05-25T00:52:38.171Z,85.98
2018-05-25T00:55:17.605Z,85.91
2018-05-25T00:57:45.295Z,85.95
2018-05-25T01:00:12.873Z,86.08
2018-05-25T01:02:40.728Z,86.06
2018-05-25T01:05:08.372Z,85.95
2018-05-25T01:07:36.797Z,86.02
2018-05-25T01:10:04.460Z,86.08
2018-05-25T01:12:34.017Z,85.93
2018-05-25T01:15:01.720Z,85.85
2018-05-25T01:17:29.395Z,85.76
2018-05-25T01:19:57.101Z,85.74
2018-05-25T01:22:25.438Z,85.48
2018-05-25T01:24:53.244Z,85.72
2018-05-25T01:27:27.821Z,85.25
2018-05-25T01:29:55.483Z,84.88
2018-05-25T01:32:23.128Z,84.87
2018-05-25T01:34:54.553Z,84.88
2018-05-25T01:37:22.172Z,84.96
2018-05-25T01:39:49.896Z,85.11
2018-05-25T01:42:18.337Z,85.04
2018-05-25T01:44:46.028Z,85.04
2018-05-25T01:47:13.653Z,84.97
2018-05-25T01:49:41.216Z,85.11
2018-05-25T01:52:08.893Z,85.22
2018-05-25T01:54:36.800Z,85.25
2018-05-25T01:57:04.580Z,85.16
2018-05-25T01:59:32.235Z,85.31
2018-05-25T02:01:59.920Z,85.61
2018-05-25T02:04:27.772Z,85.82
2018-05-25T02:06:55.381Z,85.51
2018-05-25T02:09:23.036Z,85.63
2018-05-25T02:11:50.633Z,85.19
2018-05-25T02:14:18.239Z,85.08
2018-05-25T02:16:45.921Z,84.80
2018-05-25T02:19:13.660Z,84.67
2018-05-25T02:21:41.268Z,84.36
2018-05-25T02:24:08.940Z,84.10
2018-05-25T02:26:36.572Z,84.03
2018-05-25T02:29:04.192Z,84.02
2018-05-25T02:31:31.820Z,84.06
2018-05-25T02:33:59.482Z,84.32
2018-05-25T02:36:27.109Z,84.57
2018-05-25T02:38:54.912Z,84.43
2018-05-25T02:41:22.597Z,84.44
2018-05-25T02:43:51.407Z,85.20
2018-05-25T02:46:19.325Z,85.41
2018-05-25T02:48:46.960Z,85.63
2018-05-25T02:51:14.620Z,86.13
2018-05-25T02:53:43.619Z,86.33
2018-05-25T02:56:11.372Z,86.64
2018-05-25T02:58:39.745Z,87.05
2018-05-25T03:01:07.416Z,87.54
2018-05-25T03:03:35.116Z,87.79
2018-05-25T03:06:02.803Z,88.21
2018-05-25T03:08:31.341Z,88.27
2018-05-25T03:10:59.634Z,88.63
2018-05-25T03:13:27.558Z,88.59
2018-05-25T03:15:55.181Z,88.41
2018-05-25T03:18:22.891Z,88.18
2018-05-25T03:20:50.489Z,88.05
2018-05-25T03:23:18.844Z,87.75
2018-05-25T03:25:46.861Z,87.33
2018-05-25T03:28:14.482Z,87.11
2018-05-25T03:30:42.168Z,86.80
2018-05-25T03:33:09.806Z,86.36
2018-05-25T03:35:37.469Z,86.12
2018-05-25T03:38:05.182Z,85.96
2018-05-25T03:40:32.816Z,85.34
2018-05-25T03:43:00.474Z,84.81
2018-05-25T03:45:28.704Z,84.38
2018-05-25T03:47:56.390Z,83.97
2018-05-25T03:50:24.172Z,83.66
2018-05-25T03:52:51.820Z,82.79
2018-05-25T03:55:19.468Z,82.11
2018-05-25T03:57:47.120Z,81.59
2018-05-25T04:00:26.463Z,80.62
2018-05-25T04:02:54.125Z,80.01
2018-05-25T04:05:21.861Z,79.50
2018-05-25T04:07:50.368Z,78.62
2018-05-25T04:10:18.021Z,77.72
2018-05-25T04:12:45.732Z,76.96
2018-05-25T04:15:13.385Z,73.58
2018-05-25T04:17:40.985Z,69.81
2018-05-25T04:20:09.220Z,67.48
2018-05-25T04:22:36.896Z,65.53
2018-05-25T04:25:04.530Z,62.85
2018-05-25T04:27:32.225Z,61.27
2018-05-25T04:29:59.967Z,60.07
2018-05-25T04:32:27.629Z,59.03
2018-05-25T04:34:55.270Z,58.56
2018-05-25T04:37:22.910Z,57.60
2018-05-25T04:39:50.540Z,56.06
2018-05-25T04:42:18.193Z,54.20
2018-05-25T04:44:45.933Z,52.38
2018-05-25T04:47:13.534Z,50.93
2018-05-25T04:49:41.250Z,49.85
2018-05-25T04:52:08.840Z,48.41
2018-05-25T04:54:36.465Z,47.66
2018-05-25T04:57:04.147Z,46.42
2018-05-25T04:59:31.722Z,45.34
2018-05-25T05:01:59.350Z,44.45
2018-05-25T05:04:26.959Z,43.00
2018-05-25T05:06:54.608Z,40.78
2018-05-25T05:09:22.348Z,42.99
2018-05-25T05:11:49.970Z,44.30
2018-05-25T05:14:17.656Z,43.38
2018-05-25T05:16:45.385Z,43.15
2018-05-25T05:19:13.083Z,42.45
2018-05-25T05:21:40.657Z,42.73
2018-05-25T05:24:09.113Z,41.92
2018-05-25T05:26:36.809Z,40.49
2018-05-25T05:29:04.437Z,39.74
2018-05-25T05:31:32.088Z,39.92
2018-05-25T05:34:00.566Z,38.30
2018-05-25T05:36:38.497Z,36.52
2018-05-25T05:39:06.195Z,36.24
2018-05-25T05:41:34.084Z,35.54
2018-05-25T05:44:01.720Z,34.33
2018-05-25T05:46:29.338Z,33.66
2018-05-25T05:48:56.940Z,33.97
2018-05-25T05:51:24.545Z,32.32
2018-05-25T05:53:52.313Z,31.60
2018-05-25T05:56:19.926Z,32.95
2018-05-25T05:58:47.637Z,32.38
2018-05-25T06:01:16.140Z,31.72
2018-05-25T06:03:43.725Z,31.15
2018-05-25T06:06:11.341Z,30.97
2018-05-25T06:08:38.973Z,30.51
2018-05-25T06:11:06.691Z,31.65
2018-05-25T06:13:34.412Z,31.31
2018-05-25T06:16:01.982Z,31.59
2018-05-25T06:18:29.666Z,33.31
2018-05-25T06:20:57.258Z,33.60
2018-05-25T06:23:24.924Z,35.03
2018-05-25T06:25:52.544Z,35.23
2018-05-25T06:28:20.213Z,35.18
2018-05-25T06:31:05.345Z,34.86
2018-05-25T06:33:33.022Z,36.59
2018-05-25T06:36:01.496Z,39.09
2018-05-25T06:38:29.088Z,38.74
2018-05-25T06:40:56.666Z,39.89
2018-05-25T06:43:24.322Z,39.75
2018-05-25T06:45:52.083Z,39.18
2018-05-25T06:48:19.643Z,39.29
2018-05-25T06:50:47.286Z,39.69
2018-05-25T06:53:14.891Z,40.58
2018-05-25T06:55:42.472Z,40.98
2018-05-25T06:58:10.101Z,41.47
2018-05-25T07:00:37.749Z,41.16
2018-05-25T07:03:05.383Z,41.80
2018-05-25T07:05:33.167Z,42.14
2018-05-25T07:08:01.532Z,43.00
2018-05-25T07:10:30.105Z,44.58
2018-05-25T07:12:57.688Z,44.33
2018-05-25T07:15:25.382Z,45.19
2018-05-25T07:17:53.026Z,43.38
2018-05-25T07:20:20.778Z,43.99
2018-05-25T07:22:48.344Z,43.30
2018-05-25T07:25:16.004Z,45.03
2018-05-25T07:27:43.594Z,45.14
2018-05-25T07:30:11.228Z,43.90
2018-05-25T07:32:38.892Z,45.19
2018-05-25T07:35:06.452Z,44.08
2018-05-25T07:37:34.080Z,44.33
2018-05-25T07:40:01.755Z,43.43
2018-05-25T07:42:29.353Z,42.01
2018-05-25T07:44:57.011Z,41.80
2018-05-25T07:47:24.867Z,42.22
2018-05-25T07:49:52.439Z,42.49
2018-05-25T07:52:20.094Z,42.03
2018-05-25T07:54:47.713Z,40.65
2018-05-25T07:57:15.288Z,42.38
2018-05-25T07:59:42.840Z,44.21
2018-05-25T08:02:11.249Z,44.07
2018-05-25T08:04:39.102Z,43.05
2018-05-25T08:07:07.560Z,44.66
2018-05-25T08:09:35.161Z,43.42
2018-05-25T08:12:02.822Z,44.51
2018-05-25T08:14:30.469Z,44.73
2018-05-25T08:16:58.174Z,42.92
2018-05-25T08:19:25.744Z,43.00
2018-05-25T08:21:53.448Z,43.47
2018-05-25T08:24:21.041Z,43.98
2018-05-25T08:26:48.673Z,41.38
2018-05-25T08:29:16.300Z,42.22
2018-05-25T08:31:43.860Z,42.69
2018-05-25T08:34:11.484Z,41.59
2018-05-25T08:36:39.148Z,42.71
2018-05-25T08:39:06.798Z,42.35
2018-05-25T08:41:34.396Z,42.77
2018-05-25T08:44:01.985Z,43.15
2018-05-25T08:46:29.696Z,42.59
2018-05-25T08:48:57.385Z,42.13
2018-05-25T08:51:24.980Z,43.02
2018-05-25T08:53:52.622Z,44.04
2018-05-25T08:56:20.204Z,42.77
2018-05-25T08:58:47.818Z,42.68
2018-05-25T09:01:15.418Z,40.79
2018-05-25T09:03:43.076Z,41.99
2018-05-25T09:06:10.853Z,41.58
2018-05-25T09:08:38.504Z,41.95
2018-05-25T09:11:06.158Z,42.92
2018-05-25T09:13:33.812Z,40.70
2018-05-25T09:16:01.389Z,41.74
2018-05-25T09:18:28.948Z,40.58
2018-05-25T09:20:56.572Z,41.32
2018-05-25T09:23:24.156Z,40.36
2018-05-25T09:25:51.737Z,40.14
2018-05-25T09:28:19.304Z,40.07
2018-05-25T09:30:46.906Z,41.58
2018-05-25T09:33:14.502Z,39.98
2018-05-25T09:35:42.093Z,40.57
2018-05-25T09:38:09.716Z,39.93
2018-05-25T09:40:37.284Z,41.31
2018-05-25T09:43:04.848Z,41.54
2018-05-25T09:45:32.417Z,41.24
2018-05-25T09:48:00.041Z,38.13
2018-05-25T09:50:27.700Z,38.15
2018-05-25T09:52:55.296Z,38.46
2018-05-25T09:55:23.009Z,36.10
2018-05-25T09:57:56.643Z,35.18
2018-05-25T10:00:25.995Z,35.23
2018-05-25T10:02:53.569Z,35.75
2018-05-25T10:05:21.156Z,35.57
2018-05-25T10:07:48.736Z,38.27
2018-05-25T10:10:16.373Z,35.77
2018-05-25T10:12:43.939Z,37.01
2018-05-25T10:15:11.570Z,35.70
2018-05-25T10:17:39.196Z,34.14
2018-05-25T10:20:07.529Z,35.27
2018-05-25T10:22:35.158Z,34.89
2018-05-25T10:25:02.768Z,35.24
2018-05-25T10:27:30.396Z,36.18
2018-05-25T10:29:57.981Z,35.00
2018-05-25T10:32:25.559Z,34.34
2018-05-25T10:34:53.188Z,32.69
2018-05-25T10:37:20.753Z,33.54
2018-05-25T10:39:48.340Z,32.14
2018-05-25T10:42:16.007Z,33.04
2018-05-25T10:44:43.612Z,32.84
2018-05-25T10:47:11.258Z,33.07
2018-05-25T10:49:38.856Z,31.44
2018-05-25T10:52:06.500Z,31.70
2018-05-25T10:54:34.084Z,32.33
2018-05-25T10:57:01.657Z,31.94
2018-05-25T10:59:29.300Z,31.31
2018-05-25T11:01:56.928Z,30.47
2018-05-25T11:04:24.505Z,31.00
2018-05-25T11:06:52.086Z,30.55
2018-05-25T11:09:19.720Z,29.67
2018-05-25T11:11:47.304Z,28.76
2018-05-25T11:14:14.918Z,28.68
2018-05-25T11:16:42.545Z,28.34
2018-05-25T11:19:10.150Z,29.21
2018-05-25T11:21:37.753Z,29.66
2018-05-25T11:24:05.332Z,28.83
2018-05-25T11:26:32.992Z,29.57
2018-05-25T11:29:00.637Z,29.99
2018-05-25T11:31:28.251Z,29.59
2018-05-25T11:33:55.862Z,30.08
2018-05-25T11:36:23.457Z,32.36
2018-05-25T11:38:51.093Z,33.70
2018-05-25T11:41:18.694Z,34.54
2018-05-25T11:43:46.345Z,33.32
2018-05-25T11:46:13.977Z,30.92
2018-05-25T11:48:41.573Z,29.28
2018-05-25T11:51:09.160Z,28.59
2018-05-25T11:53:36.725Z,29.71
2018-05-25T11:56:04.331Z,28.30
2018-05-25T11:58:31.904Z,27.43
2018-05-25T12:00:59.513Z,26.61
2018-05-25T12:03:27.109Z,26.38
2018-05-25T12:05:54.724Z,26.27
2018-05-25T12:08:22.329Z,27.51
2018-05-25T12:10:49.892Z,27.93
2018-05-25T12:13:17.524Z,26.37
2018-05-25T12:15:45.142Z,26.26
2018-05-25T12:18:12.792Z,26.32
2018-05-25T12:20:40.403Z,27.77
2018-05-25T12:23:08.041Z,27.47
2018-05-25T12:25:35.616Z,27.39
2018-05-25T12:28:03.222Z,27.34
2018-05-25T12:30:30.797Z,29.45
2018-05-25T12:32:58.455Z,30.60
2018-05-25T12:35:26.068Z,27.64
2018-05-25T12:37:53.642Z,27.72
2018-05-25T12:40:21.283Z,26.44
2018-05-25T12:42:48.844Z,26.06
2018-05-25T12:45:16.417Z,27.52
2018-05-25T12:47:44.009Z,25.84
2018-05-25T12:50:11.632Z,26.86
2018-05-25T12:52:39.216Z,29.30
2018-05-25T12:55:06.811Z,30.74
2018-05-25T12:57:34.427Z,31.54
2018-05-25T13:00:02.011Z,31.60
2018-05-25T13:02:29.609Z,34.89
2018-05-25T13:04:57.599Z,37.00
2018-05-25T13:07:25.311Z,41.25
2018-05-25T13:09:52.904Z,40.72
2018-05-25T13:12:20.580Z,42.00
2018-05-25T13:14:48.172Z,44.16
2018-05-25T13:17:15.765Z,49.43
2018-05-25T13:19:43.373Z,53.99
2018-05-25T13:22:10.976Z,59.70
2018-05-25T13:24:38.578Z,64.16
2018-05-25T13:27:06.252Z,67.57
2018-05-25T13:29:33.895Z,69.71
2018-05-25T13:32:01.552Z,70.22
2018-05-25T13:34:29.180Z,70.58
2018-05-25T13:36:56.752Z,71.57
2018-05-25T13:39:24.345Z,70.90
2018-05-25T13:41:51.953Z,70.72
2018-05-25T13:44:19.518Z,72.09
2018-05-25T13:46:47.204Z,72.33
2018-05-25T13:49:15.002Z,81.67
2018-05-25T13:51:42.626Z,87.08
2018-05-25T13:54:11.145Z,88.75
2018-05-25T13:56:38.728Z,91.92
2018-05-25T13:59:06.364Z,92.61
2018-05-25T14:01:33.960Z,94.27
2018-05-25T14:04:01.541Z,94.67
2018-05-25T14:06:29.124Z,94.97
2018-05-25T14:08:56.785Z,95.80
2018-05-25T14:11:24.397Z,96.22
2018-05-25T14:13:52.000Z,96.13
2018-05-25T14:16:19.582Z,96.74
2018-05-25T14:18:47.161Z,97.33
2018-05-25T14:21:14.755Z,96.68
2018-05-25T14:23:42.344Z,95.14
2018-05-25T14:26:09.968Z,95.70
2018-05-25T14:28:37.542Z,95.93
2018-05-25T14:31:05.106Z,95.50
2018-05-25T14:33:32.714Z,95.02
2018-05-25T14:36:00.288Z,95.81
2018-05-25T14:38:27.965Z,95.03
2018-05-25T14:40:55.564Z,95.27
2018-05-25T14:43:23.165Z,94.27
2018-05-25T14:45:50.752Z,95.39
2018-05-25T14:48:18.329Z,96.24
2018-05-25T14:50:45.972Z,96.17
2018-05-25T14:53:13.563Z,95.94
2018-05-25T14:55:41.137Z,95.36
2018-05-25T14:58:08.717Z,89.44
2018-05-25T15:00:36.300Z,90.07
2018-05-25T15:03:03.929Z,89.34
2018-05-25T15:05:31.720Z,89.37
2018-05-25T15:07:59.399Z,91.34
2018-05-25T15:10:27.149Z,92.22
2018-05-25T15:12:54.724Z,92.78
2018-05-25T15:15:22.372Z,93.50
2018-05-25T15:17:49.945Z,93.78
2018-05-25T15:20:17.637Z,93.61
2018-05-25T15:22:45.209Z,92.42
2018-05-25T15:25:12.864Z,91.94
2018-05-25T15:27:40.453Z,91.90
2018-05-25T15:30:08.020Z,93.22
2018-05-25T15:32:35.724Z,93.41
2018-05-25T15:35:03.328Z,94.25
2018-05-25T15:37:30.916Z,94.55
2018-05-25T15:39:58.485Z,95.04
2018-05-25T15:42:26.069Z,94.27
2018-05-25T15:49:59.423Z,94.45
2018-05-25T15:52:27.019Z,93.18
2018-05-25T15:54:54.707Z,92.58
2018-05-25T15:57:22.337Z,92.68
2018-05-25T15:59:49.929Z,92.63
2018-05-25T16:02:17.557Z,92.38
2018-05-25T16:04:45.217Z,92.48
2018-05-25T16:07:12.967Z,93.65
2018-05-25T16:09:40.643Z,93.99
2018-05-25T16:12:08.454Z,93.90
2018-05-25T16:14:36.068Z,94.75
2018-05-25T16:17:04.472Z,93.63
2018-05-25T16:19:32.123Z,93.77
2018-05-25T16:21:59.777Z,93.28
2018-05-25T16:24:27.532Z,93.60
2018-05-25T16:26:55.136Z,93.21
2018-05-25T16:29:22.716Z,92.45
2018-05-25T16:31:50.261Z,92.95
2018-05-25T16:34:17.933Z,93.91
2018-05-25T16:36:45.536Z,94.86
2018-05-25T16:39:13.080Z,95.25
2018-05-25T16:41:40.619Z,95.49
2018-05-25T16:44:08.284Z,95.73
2018-05-25T16:46:36.224Z,95.58
2018-05-25T16:49:04.048Z,95.46
2018-05-25T16:51:31.634Z,95.62
2018-05-25T16:53:59.181Z,95.16
2018-05-25T16:56:26.830Z,94.76
2018-05-25T16:58:54.450Z,94.62
2018-05-25T17:01:22.065Z,94.54
2018-05-25T17:03:49.616Z,95.02
2018-05-25T17:06:17.312Z,95.02
2018-05-25T17:08:45.084Z,95.36
2018-05-25T17:11:12.741Z,95.47
2018-05-25T17:13:40.342Z,95.07
2018-05-25T17:16:07.933Z,94.86
2018-05-25T17:18:35.609Z,94.88
2018-05-25T17:21:03.300Z,94.83
2018-05-25T17:23:31.026Z,95.29
2018-05-25T17:25:58.728Z,95.59
2018-05-25T17:28:26.392Z,95.92
2018-05-25T17:30:54.061Z,96.28
2018-05-25T17:33:21.664Z,96.54
2018-05-25T17:35:49.334Z,96.60
2018-05-25T17:38:16.898Z,96.69
2018-05-25T17:40:44.496Z,96.13
2018-05-25T17:43:12.129Z,96.08
2018-05-25T17:45:39.675Z,96.10
2018-05-25T17:48:07.359Z,96.02
2018-05-25T17:50:35.029Z,96.65
2018-05-25T17:53:02.630Z,97.00
2018-05-25T17:55:30.260Z,97.30
2018-05-25T17:57:57.801Z,97.42
2018-05-25T18:00:25.401Z,97.52
2018-05-25T18:02:52.973Z,97.56
2018-05-25T18:05:21.025Z,97.70
2018-05-25T18:07:48.645Z,97.81
2018-05-25T18:10:16.316Z,97.96
2018-05-25T18:12:43.833Z,98.07
2018-05-25T18:15:11.433Z,98.32
2018-05-25T18:17:39.050Z,98.54
2018-05-25T18:20:06.706Z,98.14
2018-05-25T18:22:34.378Z,98.11
2018-05-25T18:25:01.974Z,97.75
2018-05-25T18:27:29.602Z,97.64
2018-05-25T18:29:57.277Z,97.67
2018-05-25T18:32:25.004Z,97.57
2018-05-25T18:34:52.641Z,97.45
2018-05-25T18:37:20.267Z,97.69
2018-05-25T18:39:47.941Z,97.88
2018-05-25T18:42:15.560Z,97.60
2018-05-25T18:44:43.186Z,97.46
2018-05-25T18:47:11.428Z,97.71
2018-05-25T18:49:38.972Z,97.77
2018-05-25T18:52:06.604Z,97.60
2018-05-25T18:54:34.270Z,97.23
2018-05-25T18:57:01.877Z,97.21
2018-05-25T18:59:29.428Z,97.60
2018-05-25T19:01:57.109Z,98.25
2018-05-25T19:04:24.869Z,98.61
2018-05-25T19:06:52.570Z,98.71
2018-05-25T19:09:20.156Z,98.15
2018-05-25T19:11:47.790Z,97.67
2018-05-25T19:14:15.456Z,97.23
2018-05-25T19:16:43.124Z,97.06
2018-05-25T19:19:10.703Z,96.41
2018-05-25T19:21:38.293Z,96.43
2018-05-25T19:24:05.889Z,96.41
2018-05-25T19:26:33.521Z,96.41
2018-05-25T19:29:01.121Z,96.63
2018-05-25T19:31:28.723Z,96.63
2018-05-25T19:33:56.333Z,96.76
2018-05-25T19:36:24.093Z,96.92
2018-05-25T19:38:52.609Z,97.01
2018-05-25T19:41:21.030Z,97.00
2018-05-25T19:43:48.818Z,96.94
2018-05-25T19:46:16.433Z,96.99
2018-05-25T19:48:44.045Z,97.09
2018-05-25T19:51:11.735Z,96.74
2018-05-25T19:53:39.392Z,96.51
2018-05-25T19:56:07.029Z,96.44
2018-05-25T19:58:35.208Z,96.64
2018-05-25T20:01:05.620Z,96.95
2018-05-25T20:03:33.213Z,97.34
2018-05-25T20:06:01.717Z,97.39
2018-05-25T20:08:29.700Z,97.25
2018-05-25T20:10:57.450Z,96.41
2018-05-25T20:13:25.101Z,96.69
2018-05-25T20:15:53.549Z,96.59
2018-05-25T20:18:21.163Z,96.67
2018-05-25T20:20:49.677Z,96.99
2018-05-25T20:23:17.378Z,97.30
2018-05-25T20:25:44.856Z,97.06
2018-05-25T20:28:12.392Z,97.01
2018-05-25T20:30:40.004Z,97.24
2018-05-25T20:33:07.618Z,97.72
2018-05-25T20:35:35.173Z,98.17
2018-05-25T20:38:02.817Z,98.39
2018-05-25T20:40:30.507Z,98.64
2018-05-25T20:42:58.113Z,98.97
2018-05-25T20:45:25.666Z,99.17
2018-05-25T20:47:53.330Z,99.63
2018-05-25T20:50:21.000Z,99.76
2018-05-25T20:52:48.718Z,99.91
2018-05-25T20:55:16.349Z,100.00
2018-05-25T20:57:44.123Z,100.00
2018-05-25T21:00:11.673Z,100.00
2018-05-25T21:02:42.020Z,100.00
2018-05-25T21:05:09.817Z,100.00
2018-05-25T21:07:37.420Z,100.00
2018-05-25T21:10:04.959Z,100.00
2018-05-25T21:12:32.554Z,100.00
2018-05-25T21:15:00.181Z,100.00
2018-05-25T21:17:27.728Z,100.00
2018-05-25T21:19:55.343Z,100.00
2018-05-25T21:22:24.084Z,100.00
2018-05-25T21:24:51.639Z,100.00
2018-05-25T21:27:19.186Z,100.00
2018-05-25T21:29:46.911Z,100.00
2018-05-25T21:32:15.141Z,100.00
2018-05-25T21:34:43.485Z,100.00
2018-05-25T21:37:11.080Z,100.00
2018-05-25T21:39:39.563Z,100.00
2018-05-25T21:42:07.171Z,100.00
2018-05-25T21:44:35.036Z,100.00
2018-05-25T21:47:02.746Z,100.00
2018-05-25T21:49:30.428Z,100.00
2018-05-25T21:51:57.966Z,100.00
2018-05-25T21:54:25.876Z,100.00
2018-05-25T21:56:54.312Z,100.00
2018-05-25T21:59:24.973Z,100.00
2018-05-25T22:01:53.534Z,100.00
2018-05-25T22:04:21.312Z,100.00
2018-05-25T22:06:48.946Z,100.00
2018-05-25T22:09:16.520Z,100.00
2018-05-25T22:11:44.244Z,100.00
2018-05-25T22:14:11.856Z,100.00
2018-05-25T22:16:39.590Z,100.00
2018-05-25T22:19:07.177Z,100.00
2018-05-25T22:21:34.720Z,100.00
2018-05-25T22:24:02.320Z,100.00
2018-05-25T22:26:30.811Z,100.00
2018-05-25T22:28:58.625Z,100.00
2018-05-25T22:31:26.220Z,100.00
2018-05-25T22:33:54.952Z,100.00
2018-05-25T22:36:22.606Z,100.00
2018-05-25T22:38:50.296Z,100.00
2018-05-25T22:41:18.144Z,100.00
2018-05-25T22:43:57.389Z,100.00
2018-05-25T22:46:36.717Z,100.00
2018-05-25T22:49:15.997Z,100.00
2018-05-25T22:51:55.458Z,100.00
2018-05-25T22:54:42.866Z,100.00
2018-05-25T22:57:10.582Z,100.00
2018-05-25T22:59:39.420Z,100.00
2018-05-25T23:02:07.012Z,100.00
2018-05-25T23:04:35.413Z,100.00
2018-05-25T23:07:03.008Z,100.00
2018-05-25T23:09:30.568Z,100.00
2018-05-25T23:11:58.124Z,100.00
2018-05-25T23:14:25.691Z,100.00
2018-05-25T23:16:53.297Z,100.00
2018-05-25T23:19:20.967Z,100.00
2018-05-25T23:21:49.536Z,100.00
2018-05-25T23:24:17.153Z,100.00
2018-05-25T23:26:45.093Z,100.00
2018-05-25T23:29:15.849Z,100.00
2018-05-25T23:31:44.184Z,100.00
2018-05-25T23:34:12.055Z,100.00
2018-05-25T23:36:39.667Z,100.00
2018-05-25T23:39:07.232Z,100.00
2018-05-25T23:41:34.920Z,100.00
2018-05-25T23:44:02.525Z,100.00
2018-05-25T23:46:30.177Z,100.00
2018-05-25T23:48:57.922Z,100.00
2018-05-25T23:51:28.896Z,100.00
2018-05-25T23:53:57.368Z,100.00
2018-05-25T23:56:25.692Z,100.00
2018-05-25T23:58:53.350Z,100.00
